Welcome to our Virtual Airline
Sign-in:

Flight MFC361051

  • Submitted By: William Butler
  • Departure Airport: Port Lions (ORI)
  • Arrival Airport: Port Williams (KPR)
  • Aircraft: PIPER PA-18 (N001MM-TW)
  • Flight Time: 00.49.48
  • Date Submitted: 20/06/25
  • Route: NO STOPS
  • Status: Accepted
Flight Details
Gross Revenue:
(250 load / $ 61.00 per unit
$ 15, 250.00
Fuel Cost:
(13.6078 fuel used @ 5.1 / unit)
$ 69.40

Additional Log Information:

View Log

[12:43] ----- Flight Opened -----
[12:43] Cigar Box - 1.1.4.0
[12:43] FS: FSX
[12:43] FSUIPC: v4.929
[12:43] Flight Number: MFC361051
[12:43] FS Aircraft: PA-18_160 Amphib IFR Yellow FSX
[12:43] FS Model:
[12:43] FS Type: Piper
[12:43] Departure: ORI
[12:43] Arrival: KPR
[12:43] Flight Level: 3500
[12:43] Flight Type: H
[12:43] Passengers: 0
[12:43] FOB: 216 lbs
[12:43] Gate: 2 - ORI
[12:43] NOTE: Parking Brake Ignored
[12:43] Crash Detection: Disabled
[12:43] Crash Detection Aircraft: Disabled
[12:43] Engines: 1 Piston
[12:43] NOTE: Boarding has started
[12:43] Engine 1: Started
[12:43] Light Data: Beacon ON
[12:43] Main Door Closed
[12:43] COM1: 128.30
[12:43] COM2: 127.80
[12:43] Transponder: 1200
[12:43] NAV1: 113.70
[12:43] NAV2: 110.60
[12:43] ADF1: 284.0
[12:43] ADF2: 240.0
[12:43] Navigation Mode: NAV
[12:43] NOTE: Taxi started
[12:44] FS: Paused
[13:41] FS: Unpaused
[13:41] NOTE: ----- TAKE OFF -----
[13:41] Speed Data: 52 knots GS | 53 knots TAS | 53 knots IAS | 7 fpm VS
[13:41] FOB: 216 lbs
[13:41] Heading: 48° | Pitch: 3° | Bank: 0°
[13:41] Aircraft Weight: 1745.01 lbs
[13:41] Nearest Airport: ORI | 0.07 miles
[13:41] Runway: 6 - ORI
[13:41] Ground Surface: Gravel
[13:41] Ground Condition: Normal
[13:41] NOTE: Weather Report
[13:41] Wind 341° | 0 knots
[13:41] OAT: 15° C | TAT: 15° C | Precipitation: None | Dew Point: 5° C
[13:41] Visibility: 62 miles
[13:41] METAR:
[13:41] NOTE: Climb started
[13:41] Landing Gear: Retracted
[13:41] Speed Data: 64 knots GS | 64 knots TAS | 64 knots IAS | 413 fpm VS
[13:41] Altitude Data: 43 ft AGL | 65 ft AMSL
[13:41] View Mode: Virtual Cockpit
[13:41] FS: Paused
[13:43] FS: Unpaused
[13:44] Light Data: Navigation ON
[13:44] Light Data: Landing lights ON
[13:44] Altitude Data: 735 ft AGL | 961 ft AMSL
[13:44] Light Data: Instrument lights ON
[13:44] Light Data: Strobe lights ON
[13:47] NOTE: TOC reached
[13:47] NOTE: Cruise started
[13:47] Speed Data: 62 knots GS | 63 knots TAS | 60 knots IAS | 190 fpm VS
[13:47] FOB: 211 lbs
[13:47] Heading: 15° | Pitch: 7° | Bank: 1°
[13:47] Aircraft Weight: 1740.98 lbs
[14:00] Recovery: Flight Saved
[14:06] FS: Paused
[14:22] FS: Unpaused
[14:22] Recovery: Flight Saved
[14:25] FS: Paused
[14:30] FS: Unpaused
[14:37] Recovery: Flight Saved
[14:38] NOTE: TOD reached
[14:38] NOTE: Descent started
[14:38] Speed Data: 81 knots GS | 81 knots TAS | 78 knots IAS | -619 fpm VS
[14:38] FOB: 190 lbs
[14:38] Heading: 320° | Pitch: 0° | Bank: -8°
[14:38] Aircraft Weight: 1719.61 lbs
[14:38] NOTE: On approach
[14:43] Flaps: Position 1
[14:43] Speed Data: 64 knots GS | 63 knots TAS | 63 knots IAS | -25 fpm VS
[14:49] NOTE: ----- LANDED -----
[14:49] Landing Rate: -22.30 fpm
[14:49] Speed Data: 42 knots GS | 44 knots TAS | 44 knots IAS | -23 fpm VS
[14:49] FOB: 186 lbs
[14:49] Heading: 75° | Pitch: 8° | Bank: 1°
[14:49] Aircraft Weight: 1715.51 lbs
[14:49] Nearest Airport: KPR | 0.47 miles
[14:49] Runway: ???
[14:49] Ground Surface: Water
[14:49] Ground Condition: Normal
[14:49] NOTE: Weather Report
[14:49] Wind 341° | 0 knots
[14:49] OAT: 15° C | TAT: 16° C | Precipitation: None | Dew Point: 5° C
[14:49] Visibility: 62 miles
[14:49] METAR: KPRO 252035Z AUTO 16011KT 10SM CLR 31/14 A2990 RMK AO2 T03050143 KPRS 252015Z AUTO 16012G18KT 10SM CLR 36/10 A2995 RMK AO2 T03620102 KPRX 251956Z AUTO 12007KT 10SM FEW037 SCT047 30/23 A2998 RMK AO2 SLP158 T03000228 KPRC 251953Z 21011KT 10SM CLR 30/M09 A3004 RMK AO2 SLP079 T03001094 KPRB 251953Z AUTO 20014KT 10SM CLR 29/10 A2980 RMK AO2 SLP081 T02890100 KPRG 252015Z AUTO 00000KT 10SM CLR 30/16 A3002 RMK AO2 T02960157 KPRN 252017Z AUTO 21003KT 10SM TS CLR 28/21 A3010 RMK AO2 TSB11 T02830211
[14:49] View Mode: Virtual Cockpit
[14:49] NOTE: Taxi started
[14:51] Flaps: Position 0
[14:53] Engine 1: Stopped
[14:53] Gate: n/a
[14:53] NOTE: Flight Completed
[14:53] FS Aircraft: PA-18_160 Amphib IFR Yellow FSX
[14:53] FS Model:
[14:53] FS Type: Piper
[14:53] FOB: 186 lbs
[14:53] Fuel Used: 30 lbs
[14:53] Flight Time: 00:49:48
[14:53] Flight Time (Dawn): 00:00:00
[14:53] Flight Time (Day): 00:49:48
[14:53] Flight Time (Dusk): 00:00:00
[14:53] Flight Time (Night): 00:00:00
[14:53] Total Landings: 1
[14:53] MaxSim Rate: 1x
[14:53] Cigar Box - 1.1.4.0
[14:53] ----- Flight Closed -----

Route Map

© 2023 - Misty Flying Club